sensor_id;sensor_type;location;lat;lon;timestamp;P1;durP1;ratioP1;P2;durP2;ratioP2
8421;SDS011;4248;48.196;10.924;2023-06-24T00:00:48;8.47;;;4.83;;
8421;SDS011;4248;48.196;10.924;2023-06-24T00:03:14;9.23;;;5.27;;
8421;SDS011;4248;48.196;10.924;2023-06-24T00:05:42;9.60;;;5.10;;
8421;SDS011;4248;48.196;10.924;2023-06-24T00:08:08;8.07;;;4.80;;
8421;SDS011;4248;48.196;10.924;2023-06-24T00:10:33;8.50;;;5.20;;
8421;SDS011;4248;48.196;10.924;2023-06-24T00:12:59;7.07;;;4.23;;
8421;SDS011;4248;48.196;10.924;2023-06-24T00:15:28;7.43;;;4.77;;
8421;SDS011;4248;48.196;10.924;2023-06-24T00:17:53;9.27;;;5.07;;
8421;SDS011;4248;48.196;10.924;2023-06-24T00:20:19;9.70;;;4.93;;
8421;SDS011;4248;48.196;10.924;2023-06-24T00:22:45;10.67;;;5.70;;
8421;SDS011;4248;48.196;10.924;2023-06-24T00:25:13;8.43;;;5.30;;
8421;SDS011;4248;48.196;10.924;2023-06-24T00:27:40;8.77;;;4.67;;
8421;SDS011;4248;48.196;10.924;2023-06-24T00:30:07;8.73;;;5.30;;
8421;SDS011;4248;48.196;10.924;2023-06-24T00:32:33;7.80;;;4.40;;
8421;SDS011;4248;48.196;10.924;2023-06-24T00:34:58;7.73;;;5.10;;
8421;SDS011;4248;48.196;10.924;2023-06-24T00:37:25;8.37;;;4.90;;
8421;SDS011;4248;48.196;10.924;2023-06-24T00:39:50;6.73;;;4.77;;
8421;SDS011;4248;48.196;10.924;2023-06-24T00:42:16;7.30;;;4.70;;
8421;SDS011;4248;48.196;10.924;2023-06-24T00:44:42;8.40;;;5.63;;
8421;SDS011;4248;48.196;10.924;2023-06-24T00:47:08;7.53;;;4.83;;
8421;SDS011;4248;48.196;10.924;2023-06-24T00:49:35;7.97;;;5.00;;
8421;SDS011;4248;48.196;10.924;2023-06-24T00:52:00;7.50;;;4.80;;
8421;SDS011;4248;48.196;10.924;2023-06-24T00:54:26;8.70;;;4.87;;
8421;SDS011;4248;48.196;10.924;2023-06-24T00:56:55;10.20;;;5.53;;
8421;SDS011;4248;48.196;10.924;2023-06-24T00:59:22;8.63;;;4.90;;
8421;SDS011;4248;48.196;10.924;2023-06-24T01:01:48;10.40;;;5.23;;
8421;SDS011;4248;48.196;10.924;2023-06-24T01:04:17;10.07;;;5.40;;
8421;SDS011;4248;48.196;10.924;2023-06-24T01:06:44;7.83;;;5.33;;
8421;SDS011;4248;48.196;10.924;2023-06-24T01:09:10;11.50;;;4.90;;
8421;SDS011;4248;48.196;10.924;2023-06-24T01:11:37;8.20;;;4.30;;
8421;SDS011;4248;48.196;10.924;2023-06-24T01:14:03;8.13;;;5.07;;
8421;SDS011;4248;48.196;10.924;2023-06-24T01:16:48;9.20;;;5.87;;
8421;SDS011;4248;48.196;10.924;2023-06-24T01:25:22;10.07;;;5.03;;
8421;SDS011;4248;48.196;10.924;2023-06-24T01:28:20;10.27;;;5.20;;
8421;SDS011;4248;48.196;10.924;2023-06-24T01:33:58;9.27;;;5.67;;
8421;SDS011;4248;48.196;10.924;2023-06-24T01:36:54;10.10;;;6.20;;
8421;SDS011;4248;48.196;10.924;2023-06-24T01:39:34;11.57;;;6.50;;
8421;SDS011;4248;48.196;10.924;2023-06-24T01:42:10;10.20;;;6.47;;
8421;SDS011;4248;48.196;10.924;2023-06-24T01:44:39;10.50;;;6.60;;
8421;SDS011;4248;48.196;10.924;2023-06-24T01:47:08;10.40;;;6.57;;
8421;SDS011;4248;48.196;10.924;2023-06-24T01:49:37;13.90;;;7.03;;
8421;SDS011;4248;48.196;10.924;2023-06-24T01:52:07;9.20;;;6.13;;
8421;SDS011;4248;48.196;10.924;2023-06-24T01:54:34;12.10;;;6.53;;
8421;SDS011;4248;48.196;10.924;2023-06-24T01:57:01;11.20;;;7.20;;
8421;SDS011;4248;48.196;10.924;2023-06-24T01:59:28;8.40;;;5.57;;
8421;SDS011;4248;48.196;10.924;2023-06-24T02:01:54;8.70;;;5.33;;
8421;SDS011;4248;48.196;10.924;2023-06-24T02:04:21;8.50;;;5.67;;
8421;SDS011;4248;48.196;10.924;2023-06-24T02:06:48;9.53;;;5.50;;
8421;SDS011;4248;48.196;10.924;2023-06-24T02:09:15;8.97;;;5.43;;
8421;SDS011;4248;48.196;10.924;2023-06-24T02:11:42;10.80;;;6.03;;
8421;SDS011;4248;48.196;10.924;2023-06-24T02:14:09;8.53;;;5.03;;
8421;SDS011;4248;48.196;10.924;2023-06-24T02:16:35;8.17;;;5.27;;
8421;SDS011;4248;48.196;10.924;2023-06-24T02:19:05;8.30;;;5.60;;
8421;SDS011;4248;48.196;10.924;2023-06-24T02:21:34;8.67;;;5.73;;
8421;SDS011;4248;48.196;10.924;2023-06-24T02:24:00;9.20;;;6.07;;
8421;SDS011;4248;48.196;10.924;2023-06-24T02:26:26;10.97;;;5.70;;
8421;SDS011;4248;48.196;10.924;2023-06-24T02:28:53;8.00;;;5.10;;
8421;SDS011;4248;48.196;10.924;2023-06-24T02:31:19;8.17;;;4.70;;
8421;SDS011;4248;48.196;10.924;2023-06-24T02:33:45;8.00;;;4.90;;
8421;SDS011;4248;48.196;10.924;2023-06-24T02:36:11;8.00;;;5.50;;
8421;SDS011;4248;48.196;10.924;2023-06-24T02:38:36;8.57;;;5.70;;
8421;SDS011;4248;48.196;10.924;2023-06-24T02:41:02;13.53;;;5.77;;
8421;SDS011;4248;48.196;10.924;2023-06-24T02:43:29;10.07;;;5.70;;
8421;SDS011;4248;48.196;10.924;2023-06-24T02:45:55;10.67;;;5.60;;
8421;SDS011;4248;48.196;10.924;2023-06-24T02:48:25;10.57;;;5.70;;
8421;SDS011;4248;48.196;10.924;2023-06-24T02:50:52;8.77;;;5.67;;
8421;SDS011;4248;48.196;10.924;2023-06-24T02:53:19;8.93;;;5.83;;
8421;SDS011;4248;48.196;10.924;2023-06-24T02:55:44;9.53;;;5.83;;
8421;SDS011;4248;48.196;10.924;2023-06-24T02:58:11;14.33;;;5.53;;
8421;SDS011;4248;48.196;10.924;2023-06-24T03:00:38;8.80;;;6.10;;
8421;SDS011;4248;48.196;10.924;2023-06-24T03:03:04;8.80;;;5.93;;
8421;SDS011;4248;48.196;10.924;2023-06-24T03:05:30;7.90;;;5.60;;
8421;SDS011;4248;48.196;10.924;2023-06-24T03:07:58;7.77;;;4.87;;
8421;SDS011;4248;48.196;10.924;2023-06-24T03:10:24;8.07;;;5.50;;
8421;SDS011;4248;48.196;10.924;2023-06-24T03:12:50;16.10;;;5.50;;
8421;SDS011;4248;48.196;10.924;2023-06-24T03:15:16;10.50;;;5.47;;
8421;SDS011;4248;48.196;10.924;2023-06-24T03:17:42;7.70;;;4.97;;
8421;SDS011;4248;48.196;10.924;2023-06-24T03:20:08;9.10;;;5.80;;
8421;SDS011;4248;48.196;10.924;2023-06-24T03:22:33;13.20;;;5.80;;
8421;SDS011;4248;48.196;10.924;2023-06-24T03:24:59;8.57;;;5.53;;
8421;SDS011;4248;48.196;10.924;2023-06-24T03:27:25;12.63;;;5.10;;
8421;SDS011;4248;48.196;10.924;2023-06-24T03:29:51;8.47;;;5.10;;
8421;SDS011;4248;48.196;10.924;2023-06-24T03:32:16;9.40;;;5.60;;
8421;SDS011;4248;48.196;10.924;2023-06-24T03:34:42;8.80;;;5.40;;
8421;SDS011;4248;48.196;10.924;2023-06-24T03:37:07;7.23;;;4.90;;
8421;SDS011;4248;48.196;10.924;2023-06-24T03:39:33;9.03;;;5.30;;
8421;SDS011;4248;48.196;10.924;2023-06-24T03:41:59;8.73;;;5.97;;
8421;SDS011;4248;48.196;10.924;2023-06-24T03:44:25;9.77;;;5.50;;
8421;SDS011;4248;48.196;10.924;2023-06-24T03:46:51;7.87;;;5.20;;
8421;SDS011;4248;48.196;10.924;2023-06-24T03:49:17;8.50;;;5.27;;
8421;SDS011;4248;48.196;10.924;2023-06-24T03:51:43;10.40;;;5.60;;
8421;SDS011;4248;48.196;10.924;2023-06-24T03:54:09;9.70;;;5.10;;
8421;SDS011;4248;48.196;10.924;2023-06-24T03:56:34;7.40;;;5.30;;
8421;SDS011;4248;48.196;10.924;2023-06-24T03:59:00;9.97;;;6.20;;
8421;SDS011;4248;48.196;10.924;2023-06-24T04:01:25;10.20;;;4.83;;
8421;SDS011;4248;48.196;10.924;2023-06-24T04:03:51;8.07;;;4.53;;
8421;SDS011;4248;48.196;10.924;2023-06-24T04:06:16;11.60;;;5.60;;
8421;SDS011;4248;48.196;10.924;2023-06-24T04:08:42;10.43;;;5.63;;
8421;SDS011;4248;48.196;10.924;2023-06-24T04:11:13;8.93;;;5.70;;
8421;SDS011;4248;48.196;10.924;2023-06-24T04:13:39;10.53;;;5.23;;
8421;SDS011;4248;48.196;10.924;2023-06-24T04:16:04;8.47;;;5.73;;
8421;SDS011;4248;48.196;10.924;2023-06-24T04:18:30;9.07;;;5.80;;
8421;SDS011;4248;48.196;10.924;2023-06-24T04:20:56;10.60;;;5.60;;
8421;SDS011;4248;48.196;10.924;2023-06-24T04:23:22;8.90;;;5.10;;
8421;SDS011;4248;48.196;10.924;2023-06-24T04:25:48;7.93;;;5.40;;
8421;SDS011;4248;48.196;10.924;2023-06-24T04:28:14;8.30;;;5.50;;
8421;SDS011;4248;48.196;10.924;2023-06-24T04:30:40;8.33;;;5.50;;
8421;SDS011;4248;48.196;10.924;2023-06-24T04:33:05;8.80;;;5.70;;
8421;SDS011;4248;48.196;10.924;2023-06-24T04:35:31;8.73;;;5.30;;
8421;SDS011;4248;48.196;10.924;2023-06-24T04:37:57;7.83;;;5.07;;
8421;SDS011;4248;48.196;10.924;2023-06-24T04:40:23;7.50;;;4.57;;
8421;SDS011;4248;48.196;10.924;2023-06-24T04:42:48;8.03;;;4.50;;
8421;SDS011;4248;48.196;10.924;2023-06-24T04:45:14;8.00;;;5.37;;
8421;SDS011;4248;48.196;10.924;2023-06-24T04:47:40;7.87;;;4.87;;
8421;SDS011;4248;48.196;10.924;2023-06-24T04:50:06;7.50;;;4.53;;
8421;SDS011;4248;48.196;10.924;2023-06-24T04:52:34;8.53;;;4.57;;
8421;SDS011;4248;48.196;10.924;2023-06-24T04:55:00;7.80;;;4.40;;
8421;SDS011;4248;48.196;10.924;2023-06-24T04:57:27;11.70;;;4.10;;
8421;SDS011;4248;48.196;10.924;2023-06-24T04:59:54;8.60;;;5.20;;
8421;SDS011;4248;48.196;10.924;2023-06-24T05:02:20;7.10;;;4.30;;
8421;SDS011;4248;48.196;10.924;2023-06-24T05:04:45;7.90;;;4.77;;
8421;SDS011;4248;48.196;10.924;2023-06-24T05:07:11;7.40;;;4.60;;
8421;SDS011;4248;48.196;10.924;2023-06-24T05:09:37;8.70;;;4.73;;
8421;SDS011;4248;48.196;10.924;2023-06-24T05:12:05;8.17;;;4.40;;
8421;SDS011;4248;48.196;10.924;2023-06-24T05:14:33;6.27;;;4.20;;
8421;SDS011;4248;48.196;10.924;2023-06-24T05:17:00;6.40;;;4.00;;
8421;SDS011;4248;48.196;10.924;2023-06-24T05:19:25;8.90;;;5.20;;
8421;SDS011;4248;48.196;10.924;2023-06-24T05:21:51;7.00;;;4.30;;
8421;SDS011;4248;48.196;10.924;2023-06-24T05:24:16;7.57;;;4.63;;
8421;SDS011;4248;48.196;10.924;2023-06-24T05:26:42;6.90;;;4.90;;
8421;SDS011;4248;48.196;10.924;2023-06-24T05:29:08;8.80;;;4.40;;
8421;SDS011;4248;48.196;10.924;2023-06-24T05:31:33;6.67;;;3.77;;
8421;SDS011;4248;48.196;10.924;2023-06-24T05:33:59;7.83;;;4.50;;
8421;SDS011;4248;48.196;10.924;2023-06-24T05:36:25;7.17;;;4.47;;
8421;SDS011;4248;48.196;10.924;2023-06-24T05:38:50;8.73;;;4.00;;
8421;SDS011;4248;48.196;10.924;2023-06-24T05:41:16;7.97;;;4.77;;
8421;SDS011;4248;48.196;10.924;2023-06-24T05:43:42;7.73;;;4.50;;
8421;SDS011;4248;48.196;10.924;2023-06-24T05:46:08;7.47;;;4.60;;
8421;SDS011;4248;48.196;10.924;2023-06-24T05:48:34;7.60;;;4.43;;
8421;SDS011;4248;48.196;10.924;2023-06-24T05:50:59;10.80;;;3.90;;
8421;SDS011;4248;48.196;10.924;2023-06-24T05:53:25;9.33;;;4.50;;
8421;SDS011;4248;48.196;10.924;2023-06-24T05:55:50;6.40;;;4.23;;
8421;SDS011;4248;48.196;10.924;2023-06-24T05:58:16;9.37;;;4.90;;
8421;SDS011;4248;48.196;10.924;2023-06-24T06:00:41;6.13;;;3.83;;
8421;SDS011;4248;48.196;10.924;2023-06-24T06:03:07;6.90;;;4.70;;
8421;SDS011;4248;48.196;10.924;2023-06-24T06:05:34;9.53;;;5.00;;
8421;SDS011;4248;48.196;10.924;2023-06-24T06:07:59;12.50;;;4.57;;
8421;SDS011;4248;48.196;10.924;2023-06-24T06:10:25;7.00;;;3.73;;
8421;SDS011;4248;48.196;10.924;2023-06-24T06:12:50;6.97;;;4.00;;
8421;SDS011;4248;48.196;10.924;2023-06-24T06:15:17;6.30;;;4.07;;
8421;SDS011;4248;48.196;10.924;2023-06-24T06:17:44;7.67;;;4.17;;
8421;SDS011;4248;48.196;10.924;2023-06-24T06:20:10;7.80;;;4.37;;
8421;SDS011;4248;48.196;10.924;2023-06-24T06:22:36;8.60;;;4.70;;
8421;SDS011;4248;48.196;10.924;2023-06-24T06:25:03;10.03;;;4.60;;
8421;SDS011;4248;48.196;10.924;2023-06-24T06:27:30;8.40;;;5.03;;
8421;SDS011;4248;48.196;10.924;2023-06-24T06:29:56;8.33;;;4.23;;
8421;SDS011;4248;48.196;10.924;2023-06-24T06:32:21;10.10;;;4.63;;
8421;SDS011;4248;48.196;10.924;2023-06-24T06:34:47;8.50;;;4.30;;
8421;SDS011;4248;48.196;10.924;2023-06-24T06:37:12;9.67;;;3.67;;
8421;SDS011;4248;48.196;10.924;2023-06-24T06:39:38;6.40;;;4.10;;
8421;SDS011;4248;48.196;10.924;2023-06-24T06:42:04;7.80;;;4.10;;
8421;SDS011;4248;48.196;10.924;2023-06-24T06:44:29;6.93;;;4.47;;
8421;SDS011;4248;48.196;10.924;2023-06-24T06:46:55;6.53;;;4.10;;
8421;SDS011;4248;48.196;10.924;2023-06-24T06:49:20;7.80;;;4.70;;
8421;SDS011;4248;48.196;10.924;2023-06-24T06:51:47;6.53;;;3.50;;
8421;SDS011;4248;48.196;10.924;2023-06-24T06:54:12;8.63;;;4.60;;
8421;SDS011;4248;48.196;10.924;2023-06-24T06:56:38;6.23;;;4.30;;
8421;SDS011;4248;48.196;10.924;2023-06-24T06:59:04;6.30;;;3.77;;
8421;SDS011;4248;48.196;10.924;2023-06-24T07:01:30;7.90;;;4.40;;
8421;SDS011;4248;48.196;10.924;2023-06-24T07:03:55;6.00;;;3.77;;
8421;SDS011;4248;48.196;10.924;2023-06-24T07:06:21;8.10;;;4.10;;
8421;SDS011;4248;48.196;10.924;2023-06-24T07:08:46;7.27;;;4.20;;
8421;SDS011;4248;48.196;10.924;2023-06-24T07:11:12;7.83;;;4.37;;
8421;SDS011;4248;48.196;10.924;2023-06-24T07:13:38;7.80;;;3.80;;
8421;SDS011;4248;48.196;10.924;2023-06-24T07:16:03;5.47;;;3.30;;
8421;SDS011;4248;48.196;10.924;2023-06-24T07:18:29;7.13;;;3.43;;
8421;SDS011;4248;48.196;10.924;2023-06-24T07:20:55;6.33;;;3.30;;
8421;SDS011;4248;48.196;10.924;2023-06-24T07:23:22;9.53;;;3.40;;
8421;SDS011;4248;48.196;10.924;2023-06-24T07:25:47;7.47;;;3.50;;
8421;SDS011;4248;48.196;10.924;2023-06-24T07:28:13;7.70;;;3.37;;
8421;SDS011;4248;48.196;10.924;2023-06-24T07:30:39;8.63;;;3.00;;
8421;SDS011;4248;48.196;10.924;2023-06-24T07:33:05;4.80;;;3.00;;
8421;SDS011;4248;48.196;10.924;2023-06-24T07:35:32;8.63;;;3.93;;
8421;SDS011;4248;48.196;10.924;2023-06-24T07:37:58;5.87;;;3.80;;
8421;SDS011;4248;48.196;10.924;2023-06-24T07:40:24;6.33;;;3.83;;
8421;SDS011;4248;48.196;10.924;2023-06-24T07:42:49;7.63;;;3.57;;
8421;SDS011;4248;48.196;10.924;2023-06-24T07:45:15;7.07;;;4.20;;
8421;SDS011;4248;48.196;10.924;2023-06-24T07:47:40;7.30;;;3.87;;
8421;SDS011;4248;48.196;10.924;2023-06-24T07:50:06;5.73;;;3.20;;
8421;SDS011;4248;48.196;10.924;2023-06-24T07:52:33;8.13;;;5.10;;
8421;SDS011;4248;48.196;10.924;2023-06-24T07:54:59;8.33;;;4.87;;
8421;SDS011;4248;48.196;10.924;2023-06-24T07:57:26;6.37;;;3.97;;
8421;SDS011;4248;48.196;10.924;2023-06-24T07:59:52;7.80;;;4.17;;
8421;SDS011;4248;48.196;10.924;2023-06-24T08:02:19;8.90;;;4.17;;
8421;SDS011;4248;48.196;10.924;2023-06-24T08:04:45;7.20;;;4.27;;
8421;SDS011;4248;48.196;10.924;2023-06-24T08:07:10;7.77;;;4.33;;
8421;SDS011;4248;48.196;10.924;2023-06-24T08:09:36;8.90;;;4.10;;
8421;SDS011;4248;48.196;10.924;2023-06-24T08:12:02;7.73;;;5.03;;
8421;SDS011;4248;48.196;10.924;2023-06-24T08:14:27;9.70;;;5.60;;
8421;SDS011;4248;48.196;10.924;2023-06-24T08:16:53;8.07;;;4.17;;
8421;SDS011;4248;48.196;10.924;2023-06-24T08:19:19;6.20;;;4.10;;
8421;SDS011;4248;48.196;10.924;2023-06-24T08:21:44;7.00;;;4.20;;
8421;SDS011;4248;48.196;10.924;2023-06-24T08:24:10;9.13;;;4.50;;
8421;SDS011;4248;48.196;10.924;2023-06-24T08:26:35;7.53;;;4.43;;
8421;SDS011;4248;48.196;10.924;2023-06-24T08:29:01;9.77;;;4.67;;
8421;SDS011;4248;48.196;10.924;2023-06-24T08:31:26;7.47;;;4.33;;
8421;SDS011;4248;48.196;10.924;2023-06-24T08:33:52;9.73;;;4.80;;
8421;SDS011;4248;48.196;10.924;2023-06-24T08:36:21;11.60;;;5.80;;
8421;SDS011;4248;48.196;10.924;2023-06-24T08:38:51;8.10;;;4.53;;
8421;SDS011;4248;48.196;10.924;2023-06-24T08:41:16;9.63;;;4.47;;
8421;SDS011;4248;48.196;10.924;2023-06-24T08:43:42;10.27;;;5.23;;
8421;SDS011;4248;48.196;10.924;2023-06-24T08:46:08;7.20;;;5.00;;
8421;SDS011;4248;48.196;10.924;2023-06-24T08:48:34;6.90;;;4.50;;
8421;SDS011;4248;48.196;10.924;2023-06-24T08:51:05;9.30;;;4.43;;
8421;SDS011;4248;48.196;10.924;2023-06-24T08:53:33;9.20;;;4.20;;
8421;SDS011;4248;48.196;10.924;2023-06-24T08:55:59;8.10;;;4.57;;
8421;SDS011;4248;48.196;10.924;2023-06-24T08:58:25;10.40;;;5.20;;
8421;SDS011;4248;48.196;10.924;2023-06-24T09:00:52;8.30;;;5.27;;
8421;SDS011;4248;48.196;10.924;2023-06-24T09:03:18;13.63;;;4.80;;
8421;SDS011;4248;48.196;10.924;2023-06-24T09:05:43;7.73;;;5.00;;
8421;SDS011;4248;48.196;10.924;2023-06-24T09:08:09;8.53;;;4.97;;
8421;SDS011;4248;48.196;10.924;2023-06-24T09:10:35;11.80;;;4.40;;
8421;SDS011;4248;48.196;10.924;2023-06-24T09:13:02;6.70;;;3.70;;
8421;SDS011;4248;48.196;10.924;2023-06-24T09:15:32;7.17;;;4.07;;
8421;SDS011;4248;48.196;10.924;2023-06-24T09:17:58;6.73;;;4.70;;
8421;SDS011;4248;48.196;10.924;2023-06-24T09:20:28;15.60;;;5.13;;
8421;SDS011;4248;48.196;10.924;2023-06-24T09:23:01;7.47;;;4.83;;
8421;SDS011;4248;48.196;10.924;2023-06-24T09:25:28;10.70;;;4.70;;
8421;SDS011;4248;48.196;10.924;2023-06-24T09:27:58;9.73;;;4.90;;
8421;SDS011;4248;48.196;10.924;2023-06-24T09:30:24;7.40;;;4.60;;
8421;SDS011;4248;48.196;10.924;2023-06-24T09:32:51;12.37;;;3.67;;
8421;SDS011;4248;48.196;10.924;2023-06-24T09:35:19;10.37;;;5.10;;
8421;SDS011;4248;48.196;10.924;2023-06-24T09:37:52;7.20;;;4.00;;
8421;SDS011;4248;48.196;10.924;2023-06-24T09:40:19;11.00;;;4.40;;
8421;SDS011;4248;48.196;10.924;2023-06-24T09:42:52;10.10;;;4.60;;
8421;SDS011;4248;48.196;10.924;2023-06-24T09:45:19;9.83;;;4.30;;
8421;SDS011;4248;48.196;10.924;2023-06-24T09:47:48;10.70;;;4.63;;
8421;SDS011;4248;48.196;10.924;2023-06-24T09:50:14;6.37;;;4.30;;
8421;SDS011;4248;48.196;10.924;2023-06-24T09:52:40;6.93;;;5.10;;
8421;SDS011;4248;48.196;10.924;2023-06-24T09:55:08;10.90;;;4.83;;
8421;SDS011;4248;48.196;10.924;2023-06-24T09:57:35;7.40;;;5.07;;
8421;SDS011;4248;48.196;10.924;2023-06-24T10:00:01;7.80;;;4.93;;
8421;SDS011;4248;48.196;10.924;2023-06-24T10:02:27;7.90;;;4.40;;
8421;SDS011;4248;48.196;10.924;2023-06-24T10:04:54;9.17;;;4.80;;
8421;SDS011;4248;48.196;10.924;2023-06-24T10:07:20;9.10;;;4.57;;
8421;SDS011;4248;48.196;10.924;2023-06-24T10:09:47;7.37;;;4.00;;
8421;SDS011;4248;48.196;10.924;2023-06-24T10:12:13;9.80;;;4.90;;
8421;SDS011;4248;48.196;10.924;2023-06-24T10:14:39;9.47;;;5.03;;
8421;SDS011;4248;48.196;10.924;2023-06-24T10:17:05;7.67;;;4.80;;
8421;SDS011;4248;48.196;10.924;2023-06-24T10:19:30;8.30;;;4.30;;
8421;SDS011;4248;48.196;10.924;2023-06-24T10:22:04;9.00;;;3.77;;
8421;SDS011;4248;48.196;10.924;2023-06-24T10:24:35;7.60;;;3.93;;
8421;SDS011;4248;48.196;10.924;2023-06-24T10:29:32;9.40;;;4.37;;
8421;SDS011;4248;48.196;10.924;2023-06-24T10:32:00;7.90;;;4.40;;
8421;SDS011;4248;48.196;10.924;2023-06-24T10:34:34;7.03;;;4.03;;
8421;SDS011;4248;48.196;10.924;2023-06-24T10:42:25;5.87;;;3.90;;
8421;SDS011;4248;48.196;10.924;2023-06-24T10:45:19;6.87;;;4.30;;
8421;SDS011;4248;48.196;10.924;2023-06-24T10:47:51;9.27;;;5.10;;
8421;SDS011;4248;48.196;10.924;2023-06-24T10:50:24;12.13;;;3.20;;
8421;SDS011;4248;48.196;10.924;2023-06-24T10:52:51;6.30;;;4.20;;
8421;SDS011;4248;48.196;10.924;2023-06-24T10:55:20;5.70;;;3.90;;
8421;SDS011;4248;48.196;10.924;2023-06-24T10:57:47;8.43;;;4.30;;
8421;SDS011;4248;48.196;10.924;2023-06-24T11:00:13;6.07;;;3.80;;
8421;SDS011;4248;48.196;10.924;2023-06-24T11:02:40;9.57;;;4.80;;
8421;SDS011;4248;48.196;10.924;2023-06-24T11:05:06;6.77;;;3.50;;
8421;SDS011;4248;48.196;10.924;2023-06-24T11:07:33;5.77;;;3.83;;
8421;SDS011;4248;48.196;10.924;2023-06-24T11:10:04;9.70;;;4.40;;
8421;SDS011;4248;48.196;10.924;2023-06-24T11:12:38;6.43;;;3.97;;
8421;SDS011;4248;48.196;10.924;2023-06-24T11:15:05;6.07;;;3.60;;
8421;SDS011;4248;48.196;10.924;2023-06-24T11:17:32;9.93;;;3.80;;
8421;SDS011;4248;48.196;10.924;2023-06-24T11:19:59;6.87;;;4.03;;
8421;SDS011;4248;48.196;10.924;2023-06-24T11:22:26;7.00;;;3.90;;
8421;SDS011;4248;48.196;10.924;2023-06-24T11:24:52;8.60;;;4.80;;
8421;SDS011;4248;48.196;10.924;2023-06-24T11:27:23;7.60;;;4.60;;
8421;SDS011;4248;48.196;10.924;2023-06-24T11:29:51;16.03;;;3.87;;
8421;SDS011;4248;48.196;10.924;2023-06-24T11:32:18;7.67;;;4.20;;
8421;SDS011;4248;48.196;10.924;2023-06-24T11:34:44;6.13;;;3.43;;
8421;SDS011;4248;48.196;10.924;2023-06-24T11:37:12;7.90;;;4.30;;
8421;SDS011;4248;48.196;10.924;2023-06-24T11:39:40;7.07;;;4.33;;
8421;SDS011;4248;48.196;10.924;2023-06-24T11:42:06;7.50;;;3.73;;
8421;SDS011;4248;48.196;10.924;2023-06-24T11:44:35;7.90;;;4.43;;
8421;SDS011;4248;48.196;10.924;2023-06-24T11:47:07;6.50;;;4.30;;
8421;SDS011;4248;48.196;10.924;2023-06-24T11:49:50;7.07;;;4.30;;
8421;SDS011;4248;48.196;10.924;2023-06-24T11:52:26;7.30;;;4.10;;
8421;SDS011;4248;48.196;10.924;2023-06-24T11:55:26;7.43;;;4.43;;
8421;SDS011;4248;48.196;10.924;2023-06-24T11:57:55;8.03;;;4.33;;
8421;SDS011;4248;48.196;10.924;2023-06-24T12:00:21;8.47;;;4.50;;
8421;SDS011;4248;48.196;10.924;2023-06-24T12:02:49;7.30;;;4.53;;
8421;SDS011;4248;48.196;10.924;2023-06-24T12:05:26;11.13;;;4.17;;
8421;SDS011;4248;48.196;10.924;2023-06-24T12:07:53;8.87;;;4.30;;
8421;SDS011;4248;48.196;10.924;2023-06-24T12:10:20;6.43;;;4.10;;
8421;SDS011;4248;48.196;10.924;2023-06-24T12:12:46;7.07;;;4.23;;
8421;SDS011;4248;48.196;10.924;2023-06-24T12:15:12;6.83;;;4.03;;
8421;SDS011;4248;48.196;10.924;2023-06-24T12:17:37;6.57;;;4.37;;
8421;SDS011;4248;48.196;10.924;2023-06-24T12:20:03;7.20;;;4.63;;
8421;SDS011;4248;48.196;10.924;2023-06-24T12:22:29;9.93;;;4.70;;
8421;SDS011;4248;48.196;10.924;2023-06-24T12:24:55;7.57;;;4.50;;
8421;SDS011;4248;48.196;10.924;2023-06-24T12:27:20;7.30;;;3.90;;
8421;SDS011;4248;48.196;10.924;2023-06-24T12:29:46;6.03;;;3.63;;
8421;SDS011;4248;48.196;10.924;2023-06-24T12:32:12;10.00;;;4.43;;
8421;SDS011;4248;48.196;10.924;2023-06-24T12:34:37;6.33;;;4.00;;
8421;SDS011;4248;48.196;10.924;2023-06-24T12:37:03;5.63;;;3.23;;
8421;SDS011;4248;48.196;10.924;2023-06-24T12:39:28;7.87;;;3.90;;
8421;SDS011;4248;48.196;10.924;2023-06-24T12:41:54;6.83;;;4.17;;
8421;SDS011;4248;48.196;10.924;2023-06-24T12:44:19;7.17;;;4.13;;
8421;SDS011;4248;48.196;10.924;2023-06-24T12:46:45;6.37;;;4.07;;
8421;SDS011;4248;48.196;10.924;2023-06-24T12:49:10;7.67;;;4.73;;
8421;SDS011;4248;48.196;10.924;2023-06-24T12:51:36;7.00;;;4.90;;
8421;SDS011;4248;48.196;10.924;2023-06-24T12:54:01;6.23;;;3.57;;
8421;SDS011;4248;48.196;10.924;2023-06-24T12:56:27;9.33;;;4.53;;
8421;SDS011;4248;48.196;10.924;2023-06-24T12:58:52;6.77;;;4.40;;
8421;SDS011;4248;48.196;10.924;2023-06-24T13:01:18;11.00;;;3.80;;
8421;SDS011;4248;48.196;10.924;2023-06-24T13:03:43;5.63;;;3.70;;
8421;SDS011;4248;48.196;10.924;2023-06-24T13:06:09;5.13;;;3.47;;
8421;SDS011;4248;48.196;10.924;2023-06-24T13:08:35;6.40;;;4.40;;
8421;SDS011;4248;48.196;10.924;2023-06-24T13:11:00;8.47;;;3.90;;
8421;SDS011;4248;48.196;10.924;2023-06-24T13:13:26;8.87;;;4.17;;
8421;SDS011;4248;48.196;10.924;2023-06-24T13:15:51;7.17;;;4.30;;
8421;SDS011;4248;48.196;10.924;2023-06-24T13:18:17;7.23;;;3.63;;
8421;SDS011;4248;48.196;10.924;2023-06-24T13:20:44;9.30;;;4.20;;
8421;SDS011;4248;48.196;10.924;2023-06-24T13:23:10;6.70;;;4.67;;
8421;SDS011;4248;48.196;10.924;2023-06-24T13:25:36;7.13;;;4.07;;
8421;SDS011;4248;48.196;10.924;2023-06-24T13:28:02;6.90;;;3.90;;
8421;SDS011;4248;48.196;10.924;2023-06-24T13:30:28;5.83;;;3.87;;
8421;SDS011;4248;48.196;10.924;2023-06-24T13:32:53;6.73;;;4.10;;
8421;SDS011;4248;48.196;10.924;2023-06-24T13:35:19;8.50;;;4.27;;
8421;SDS011;4248;48.196;10.924;2023-06-24T13:37:44;7.13;;;3.70;;
8421;SDS011;4248;48.196;10.924;2023-06-24T13:40:11;8.47;;;4.20;;
8421;SDS011;4248;48.196;10.924;2023-06-24T13:42:37;7.27;;;4.27;;
8421;SDS011;4248;48.196;10.924;2023-06-24T13:45:03;6.70;;;4.13;;
8421;SDS011;4248;48.196;10.924;2023-06-24T13:47:29;8.27;;;4.57;;
8421;SDS011;4248;48.196;10.924;2023-06-24T13:49:55;7.13;;;4.63;;
8421;SDS011;4248;48.196;10.924;2023-06-24T13:52:20;6.80;;;4.20;;
8421;SDS011;4248;48.196;10.924;2023-06-24T13:54:46;7.30;;;4.07;;
8421;SDS011;4248;48.196;10.924;2023-06-24T13:57:12;6.27;;;4.00;;
8421;SDS011;4248;48.196;10.924;2023-06-24T13:59:37;6.13;;;3.97;;
8421;SDS011;4248;48.196;10.924;2023-06-24T14:02:03;6.23;;;3.97;;
8421;SDS011;4248;48.196;10.924;2023-06-24T14:04:29;8.50;;;4.10;;
8421;SDS011;4248;48.196;10.924;2023-06-24T14:06:55;8.10;;;3.37;;
8421;SDS011;4248;48.196;10.924;2023-06-24T14:09:21;6.67;;;3.60;;
8421;SDS011;4248;48.196;10.924;2023-06-24T14:11:46;7.60;;;3.50;;
8421;SDS011;4248;48.196;10.924;2023-06-24T14:14:12;6.00;;;3.90;;
8421;SDS011;4248;48.196;10.924;2023-06-24T14:16:38;8.10;;;3.90;;
8421;SDS011;4248;48.196;10.924;2023-06-24T14:19:03;6.77;;;3.90;;
8421;SDS011;4248;48.196;10.924;2023-06-24T14:21:29;7.20;;;3.73;;
8421;SDS011;4248;48.196;10.924;2023-06-24T14:23:56;5.73;;;3.77;;
8421;SDS011;4248;48.196;10.924;2023-06-24T14:26:22;6.83;;;3.60;;
8421;SDS011;4248;48.196;10.924;2023-06-24T14:28:48;5.97;;;4.00;;
8421;SDS011;4248;48.196;10.924;2023-06-24T14:31:13;5.80;;;3.20;;
8421;SDS011;4248;48.196;10.924;2023-06-24T14:33:39;7.20;;;4.17;;
8421;SDS011;4248;48.196;10.924;2023-06-24T14:36:04;7.27;;;4.17;;
8421;SDS011;4248;48.196;10.924;2023-06-24T14:38:30;6.10;;;3.83;;
8421;SDS011;4248;48.196;10.924;2023-06-24T14:40:56;7.23;;;4.00;;
8421;SDS011;4248;48.196;10.924;2023-06-24T14:43:22;9.90;;;3.70;;
8421;SDS011;4248;48.196;10.924;2023-06-24T14:45:47;5.67;;;3.67;;
8421;SDS011;4248;48.196;10.924;2023-06-24T14:48:13;5.30;;;3.43;;
8421;SDS011;4248;48.196;10.924;2023-06-24T14:50:38;6.50;;;3.60;;
8421;SDS011;4248;48.196;10.924;2023-06-24T14:53:04;6.93;;;3.20;;
8421;SDS011;4248;48.196;10.924;2023-06-24T14:55:29;5.43;;;3.33;;
8421;SDS011;4248;48.196;10.924;2023-06-24T14:57:55;6.87;;;3.27;;
8421;SDS011;4248;48.196;10.924;2023-06-24T15:00:21;7.10;;;3.57;;
8421;SDS011;4248;48.196;10.924;2023-06-24T15:02:46;6.87;;;3.80;;
8421;SDS011;4248;48.196;10.924;2023-06-24T15:05:12;5.57;;;3.30;;
8421;SDS011;4248;48.196;10.924;2023-06-24T15:07:37;9.63;;;3.87;;
8421;SDS011;4248;48.196;10.924;2023-06-24T15:10:04;8.33;;;4.20;;
8421;SDS011;4248;48.196;10.924;2023-06-24T15:12:30;7.57;;;3.70;;
8421;SDS011;4248;48.196;10.924;2023-06-24T15:14:55;5.80;;;3.97;;